Tropical Cyclones
[Index]
Main Index Home Page Stock Weather Photos Extreme Storms Discussion Storm News and Storm Chasing Reports Tropical Cyclones / Hurricanes / Typhoons Weather Data and Links Wild Fires / Bushfires Weather Observation Techniques Weather Picture Catalogue Tornado Pictures and Reports Stock Video Footage and DVDs for sale
Season 1976-1977 Tropical Cyclone IRENE Track Map
Season 1976-1977 Summaries: [BoM-AU] [JTWC-AU] [JTWC-SIO] [JTWC-SPAC] [JTWC-SH]
<<- Previous TC | JTWC 1976-1977 Season | Next TC ->>

click for intensity scale information  Lat/long Grid: Show Hide

 Date Labels: Show Hide

Joint Typhoon Warning Centre Cyclone Data

Name: IRENE
Number: 937 / 7706

06 Jan 1977 00:00 UTC to 13 Jan 1977 00:00 UTC

    date/time    lat    long     hPa   cat  kts
1977-01-06 00   11.2   121.0                  25          
1977-01-06 06   11.3   121.0                  30          
1977-01-06 12   11.5   121.1                  35          
1977-01-06 18   11.6   121.2            1     45          
1977-01-07 00   11.8   121.4            1     50          
1977-01-07 06   11.9   121.6            2     55          
1977-01-07 12   12.1   121.8            2     60          
1977-01-07 18   12.5   122.8            2     65          
1977-01-08 00   12.9   123.9            2     70          
1977-01-08 06   13.1   124.1            3     75          
1977-01-08 12   13.2   124.4            3     75          
1977-01-08 18   13.3   124.6            3     80          
1977-01-09 00   13.4   124.9            3     85          
1977-01-09 06   13.6   124.8            3     85          
1977-01-09 12   13.8   124.2            3     85          
1977-01-09 18   14.0   123.2            3     85          
1977-01-10 00   14.2   122.2            3     85          
1977-01-10 06   14.4   121.4            3     85          
1977-01-10 12   14.6   120.6            3     80          
1977-01-10 18   15.0   119.8            3     75          
1977-01-11 00   15.5   119.0            2     70          
1977-01-11 06   15.9   118.3            2     65          
1977-01-11 12   16.3   117.7            2     60          
1977-01-11 18   16.7   117.1            1     50          
1977-01-12 00   17.1   116.5            1     40          
1977-01-12 06   17.3   115.8            1     40          
1977-01-12 12   17.3   115.0            1     40          
1977-01-12 18   17.2   113.9            1     40          
1977-01-13 00   17.0   112.5                  35          
Winds are 1-min average.

Tropical cyclone tracks developed by Michael Bath using data from the Joint Typhoon Warning Centre Best Tracks and Google Maps.


[Australian Severe Weather index] [Copyright Notice] [Email Contacts] [Search This Site] [Privacy Policy]
Document: tropical_cyclone_irene.htm Updated: 18 September 2016